sensor_id;sensor_type;location;lat;lon;timestamp;pressure;altitude;pressure_sealevel;temperature;humidity
5905;BME280;2978;42.012;24.880;2023-03-14T00:01:18;99211.44;;;6.26;49.53
5905;BME280;2978;42.012;24.880;2023-03-14T00:03:45;99206.09;;;6.19;49.49
5905;BME280;2978;42.012;24.880;2023-03-14T00:06:11;99210.00;;;6.12;50.12
5905;BME280;2978;42.012;24.880;2023-03-14T00:08:37;99207.25;;;6.00;49.50
5905;BME280;2978;42.012;24.880;2023-03-14T00:11:15;99211.41;;;6.03;50.33
5905;BME280;2978;42.012;24.880;2023-03-14T00:13:41;99219.59;;;6.14;49.95
5905;BME280;2978;42.012;24.880;2023-03-14T00:16:11;99210.22;;;5.99;49.93
5905;BME280;2978;42.012;24.880;2023-03-14T00:18:37;99192.94;;;5.75;50.77
5905;BME280;2978;42.012;24.880;2023-03-14T00:21:04;99188.41;;;5.69;50.27
5905;BME280;2978;42.012;24.880;2023-03-14T00:23:32;99187.94;;;5.72;51.06
5905;BME280;2978;42.012;24.880;2023-03-14T00:25:59;99185.06;;;5.67;51.17
5905;BME280;2978;42.012;24.880;2023-03-14T00:28:25;99190.09;;;5.70;51.42
5905;BME280;2978;42.012;24.880;2023-03-14T00:30:51;99190.09;;;5.70;51.69
5905;BME280;2978;42.012;24.880;2023-03-14T00:33:16;99180.47;;;5.67;52.20
5905;BME280;2978;42.012;24.880;2023-03-14T00:35:42;99175.06;;;5.49;52.61
5905;BME280;2978;42.012;24.880;2023-03-14T00:38:07;99178.09;;;5.59;52.27
5905;BME280;2978;42.012;24.880;2023-03-14T00:40:33;99165.84;;;5.50;52.65
5905;BME280;2978;42.012;24.880;2023-03-14T00:42:58;99164.91;;;5.56;53.06
5905;BME280;2978;42.012;24.880;2023-03-14T00:45:23;99164.22;;;5.61;53.00
5905;BME280;2978;42.012;24.880;2023-03-14T00:47:49;99154.19;;;5.43;53.42
5905;BME280;2978;42.012;24.880;2023-03-14T00:50:14;99146.03;;;5.14;53.96
5905;BME280;2978;42.012;24.880;2023-03-14T00:52:40;99145.16;;;5.31;54.74
5905;BME280;2978;42.012;24.880;2023-03-14T00:55:05;99132.44;;;5.25;54.33
5905;BME280;2978;42.012;24.880;2023-03-14T00:57:31;99141.78;;;5.18;54.30
5905;BME280;2978;42.012;24.880;2023-03-14T00:59:56;99133.16;;;5.21;53.87
5905;BME280;2978;42.012;24.880;2023-03-14T01:02:22;99126.50;;;5.17;54.30
5905;BME280;2978;42.012;24.880;2023-03-14T01:04:48;99117.94;;;5.13;55.04
5905;BME280;2978;42.012;24.880;2023-03-14T01:07:14;99114.31;;;5.19;55.46
5905;BME280;2978;42.012;24.880;2023-03-14T01:09:39;99118.13;;;5.30;54.73
5905;BME280;2978;42.012;24.880;2023-03-14T01:12:04;99118.91;;;5.60;54.14
5905;BME280;2978;42.012;24.880;2023-03-14T01:14:30;99119.03;;;5.65;53.99
5905;BME280;2978;42.012;24.880;2023-03-14T01:17:01;99113.94;;;5.57;54.30
5905;BME280;2978;42.012;24.880;2023-03-14T01:19:28;99106.53;;;5.46;55.04
5905;BME280;2978;42.012;24.880;2023-03-14T01:21:53;99113.81;;;5.63;55.41
5905;BME280;2978;42.012;24.880;2023-03-14T01:24:19;99114.41;;;5.77;53.98
5905;BME280;2978;42.012;24.880;2023-03-14T01:26:45;99113.31;;;5.96;53.56
5905;BME280;2978;42.012;24.880;2023-03-14T01:29:11;99116.75;;;6.03;52.67
5905;BME280;2978;42.012;24.880;2023-03-14T01:31:36;99108.66;;;5.97;53.08
5905;BME280;2978;42.012;24.880;2023-03-14T01:34:14;99098.00;;;5.84;53.14
5905;BME280;2978;42.012;24.880;2023-03-14T01:36:39;99089.19;;;5.70;54.09
5905;BME280;2978;42.012;24.880;2023-03-14T01:39:05;99077.16;;;5.48;53.77
5905;BME280;2978;42.012;24.880;2023-03-14T01:41:31;99086.38;;;5.35;55.17
5905;BME280;2978;42.012;24.880;2023-03-14T01:43:56;99094.28;;;5.25;55.23
5905;BME280;2978;42.012;24.880;2023-03-14T01:51:25;99085.16;;;5.20;55.19
5905;BME280;2978;42.012;24.880;2023-03-14T01:53:57;99085.97;;;5.20;55.62
5905;BME280;2978;42.012;24.880;2023-03-14T01:56:25;99079.47;;;5.21;54.94
5905;BME280;2978;42.012;24.880;2023-03-14T01:58:51;99086.00;;;5.32;54.49
5905;BME280;2978;42.012;24.880;2023-03-14T02:01:20;99096.13;;;5.43;54.84
5905;BME280;2978;42.012;24.880;2023-03-14T02:03:53;99088.53;;;5.33;54.93
5905;BME280;2978;42.012;24.880;2023-03-14T02:06:23;99078.19;;;5.35;54.37
5905;BME280;2978;42.012;24.880;2023-03-14T02:08:50;99079.13;;;5.29;54.46
5905;BME280;2978;42.012;24.880;2023-03-14T02:11:17;99076.28;;;5.24;55.13
5905;BME280;2978;42.012;24.880;2023-03-14T02:13:43;99082.38;;;4.97;55.39
5905;BME280;2978;42.012;24.880;2023-03-14T02:16:09;99087.84;;;5.08;55.30
5905;BME280;2978;42.012;24.880;2023-03-14T02:18:34;99088.81;;;5.14;56.14
5905;BME280;2978;42.012;24.880;2023-03-14T02:23:58;99079.09;;;5.18;54.07
5905;BME280;2978;42.012;24.880;2023-03-14T02:27:13;99077.31;;;5.12;54.76
5905;BME280;2978;42.012;24.880;2023-03-14T02:29:47;99069.47;;;5.04;55.55
5905;BME280;2978;42.012;24.880;2023-03-14T02:32:14;99061.69;;;5.19;55.24
5905;BME280;2978;42.012;24.880;2023-03-14T02:34:42;99058.47;;;5.10;55.55
5905;BME280;2978;42.012;24.880;2023-03-14T02:37:11;99065.34;;;5.13;55.28
5905;BME280;2978;42.012;24.880;2023-03-14T02:39:43;99060.97;;;5.12;55.52
5905;BME280;2978;42.012;24.880;2023-03-14T02:42:10;99067.25;;;5.12;55.72
5905;BME280;2978;42.012;24.880;2023-03-14T02:44:48;99063.09;;;5.10;56.01
5905;BME280;2978;42.012;24.880;2023-03-14T02:47:13;99066.75;;;5.04;55.65
5905;BME280;2978;42.012;24.880;2023-03-14T02:49:39;99051.47;;;5.03;56.00
5905;BME280;2978;42.012;24.880;2023-03-14T02:52:05;99074.72;;;5.17;55.15
5905;BME280;2978;42.012;24.880;2023-03-14T02:54:31;99070.47;;;5.21;54.99
5905;BME280;2978;42.012;24.880;2023-03-14T02:56:56;99065.94;;;5.15;55.56
5905;BME280;2978;42.012;24.880;2023-03-14T02:59:22;99085.16;;;5.20;54.97
5905;BME280;2978;42.012;24.880;2023-03-14T03:01:47;99072.22;;;5.15;54.74
5905;BME280;2978;42.012;24.880;2023-03-14T03:04:12;99080.63;;;5.14;55.90
5905;BME280;2978;42.012;24.880;2023-03-14T03:06:38;99081.69;;;5.13;55.66
5905;BME280;2978;42.012;24.880;2023-03-14T03:09:03;99085.50;;;5.12;54.82
5905;BME280;2978;42.012;24.880;2023-03-14T03:11:29;99078.69;;;5.03;55.80
5905;BME280;2978;42.012;24.880;2023-03-14T03:13:54;99088.06;;;5.07;55.63
5905;BME280;2978;42.012;24.880;2023-03-14T03:16:20;99099.44;;;5.04;55.21
5905;BME280;2978;42.012;24.880;2023-03-14T03:18:45;99098.00;;;5.01;55.57
5905;BME280;2978;42.012;24.880;2023-03-14T03:21:10;99095.38;;;4.95;55.51
5905;BME280;2978;42.012;24.880;2023-03-14T03:23:36;99094.56;;;5.06;55.20
5905;BME280;2978;42.012;24.880;2023-03-14T03:26:02;99087.00;;;5.08;54.89
5905;BME280;2978;42.012;24.880;2023-03-14T03:28:28;99091.84;;;5.06;54.95
5905;BME280;2978;42.012;24.880;2023-03-14T03:30:53;99092.94;;;5.05;55.70
5905;BME280;2978;42.012;24.880;2023-03-14T03:33:19;99093.41;;;5.02;55.50
5905;BME280;2978;42.012;24.880;2023-03-14T03:35:49;99084.75;;;5.05;55.97
5905;BME280;2978;42.012;24.880;2023-03-14T03:38:15;99092.56;;;5.01;56.39
5905;BME280;2978;42.012;24.880;2023-03-14T03:40:41;99087.34;;;5.00;56.69
5905;BME280;2978;42.012;24.880;2023-03-14T03:43:06;99092.19;;;4.98;56.19
5905;BME280;2978;42.012;24.880;2023-03-14T03:45:32;99092.09;;;5.04;56.09
5905;BME280;2978;42.012;24.880;2023-03-14T03:47:57;99092.31;;;5.03;56.11
5905;BME280;2978;42.012;24.880;2023-03-14T03:50:23;99093.66;;;5.12;56.65
5905;BME280;2978;42.012;24.880;2023-03-14T03:52:48;99093.66;;;5.12;55.68
5905;BME280;2978;42.012;24.880;2023-03-14T03:55:14;99088.47;;;5.22;55.85
5905;BME280;2978;42.012;24.880;2023-03-14T03:57:39;99085.16;;;5.20;55.61
5905;BME280;2978;42.012;24.880;2023-03-14T04:00:06;99088.34;;;5.17;56.11
5905;BME280;2978;42.012;24.880;2023-03-14T04:02:32;99092.00;;;5.11;56.10
5905;BME280;2978;42.012;24.880;2023-03-14T04:04:57;99094.19;;;5.02;56.57
5905;BME280;2978;42.012;24.880;2023-03-14T04:07:23;99101.81;;;5.00;56.76
5905;BME280;2978;42.012;24.880;2023-03-14T04:09:48;99099.28;;;4.99;56.64
5905;BME280;2978;42.012;24.880;2023-03-14T04:12:13;99087.22;;;4.95;56.56
5905;BME280;2978;42.012;24.880;2023-03-14T04:14:39;99078.44;;;4.93;56.34
5905;BME280;2978;42.012;24.880;2023-03-14T04:17:06;99074.72;;;4.87;57.17
5905;BME280;2978;42.012;24.880;2023-03-14T04:19:32;99069.03;;;4.77;56.89
5905;BME280;2978;42.012;24.880;2023-03-14T04:21:57;99068.66;;;4.74;57.70
5905;BME280;2978;42.012;24.880;2023-03-14T04:24:23;99060.00;;;4.77;57.20
5905;BME280;2978;42.012;24.880;2023-03-14T04:26:48;99051.00;;;4.76;57.71
5905;BME280;2978;42.012;24.880;2023-03-14T04:29:13;99043.31;;;4.85;56.86
5905;BME280;2978;42.012;24.880;2023-03-14T04:31:39;99025.91;;;4.74;57.45
5905;BME280;2978;42.012;24.880;2023-03-14T04:34:04;99025.81;;;4.51;57.62
5905;BME280;2978;42.012;24.880;2023-03-14T04:36:30;99019.16;;;4.47;57.42
5905;BME280;2978;42.012;24.880;2023-03-14T04:38:55;99025.53;;;4.41;58.38
5905;BME280;2978;42.012;24.880;2023-03-14T04:41:21;99030.22;;;4.34;58.68
5905;BME280;2978;42.012;24.880;2023-03-14T04:44:08;99021.69;;;4.30;58.92
5905;BME280;2978;42.012;24.880;2023-03-14T04:46:33;99027.72;;;4.32;59.16
5905;BME280;2978;42.012;24.880;2023-03-14T04:48:58;99024.56;;;4.35;58.70
5905;BME280;2978;42.012;24.880;2023-03-14T04:51:24;99025.72;;;4.39;59.37
5905;BME280;2978;42.012;24.880;2023-03-14T04:53:52;99030.50;;;4.44;58.75
5905;BME280;2978;42.012;24.880;2023-03-14T04:56:18;99039.06;;;4.47;58.94
5905;BME280;2978;42.012;24.880;2023-03-14T04:58:43;99039.47;;;4.63;58.33
5905;BME280;2978;42.012;24.880;2023-03-14T05:01:09;99032.41;;;4.73;57.17
5905;BME280;2978;42.012;24.880;2023-03-14T05:03:35;99059.53;;;4.80;57.04
5905;BME280;2978;42.012;24.880;2023-03-14T05:06:04;99050.47;;;4.86;57.16
5905;BME280;2978;42.012;24.880;2023-03-14T05:08:29;99053.34;;;5.02;57.33
5905;BME280;2978;42.012;24.880;2023-03-14T05:10:56;99054.94;;;5.21;56.71
5905;BME280;2978;42.012;24.880;2023-03-14T05:13:22;99070.00;;;5.35;56.62
5905;BME280;2978;42.012;24.880;2023-03-14T05:15:48;99063.19;;;5.67;54.77
5905;BME280;2978;42.012;24.880;2023-03-14T05:18:15;99072.50;;;6.01;54.12
5905;BME280;2978;42.012;24.880;2023-03-14T05:20:41;99067.34;;;6.16;53.64
5905;BME280;2978;42.012;24.880;2023-03-14T05:23:08;99062.56;;;6.35;52.14
5905;BME280;2978;42.012;24.880;2023-03-14T05:25:33;99052.94;;;6.55;51.31
5905;BME280;2978;42.012;24.880;2023-03-14T05:27:59;99063.75;;;6.78;50.96
5905;BME280;2978;42.012;24.880;2023-03-14T05:30:24;99072.78;;;7.07;49.95
5905;BME280;2978;42.012;24.880;2023-03-14T05:32:49;99055.94;;;7.27;49.68
5905;BME280;2978;42.012;24.880;2023-03-14T05:35:15;99061.34;;;7.55;49.09
5905;BME280;2978;42.012;24.880;2023-03-14T05:37:40;99064.06;;;7.71;47.94
5905;BME280;2978;42.012;24.880;2023-03-14T05:40:06;99080.31;;;7.78;48.24
5905;BME280;2978;42.012;24.880;2023-03-14T05:42:32;99072.19;;;7.99;47.44
5905;BME280;2978;42.012;24.880;2023-03-14T05:44:58;99067.94;;;8.09;47.51
5905;BME280;2978;42.012;24.880;2023-03-14T05:47:23;99068.84;;;8.14;47.34
5905;BME280;2978;42.012;24.880;2023-03-14T05:49:49;99072.38;;;7.93;47.97
5905;BME280;2978;42.012;24.880;2023-03-14T05:52:14;99065.06;;;7.82;48.33
5905;BME280;2978;42.012;24.880;2023-03-14T05:54:40;99076.75;;;7.61;48.12
5905;BME280;2978;42.012;24.880;2023-03-14T05:57:06;99069.06;;;7.58;49.21
5905;BME280;2978;42.012;24.880;2023-03-14T05:59:31;99065.22;;;7.59;48.79
5905;BME280;2978;42.012;24.880;2023-03-14T06:01:57;99070.19;;;7.62;48.60
5905;BME280;2978;42.012;24.880;2023-03-14T06:04:22;99071.88;;;7.63;49.05
5905;BME280;2978;42.012;24.880;2023-03-14T06:06:48;99064.91;;;7.72;48.68
5905;BME280;2978;42.012;24.880;2023-03-14T06:09:13;99075.66;;;7.62;49.89
5905;BME280;2978;42.012;24.880;2023-03-14T06:11:38;99069.06;;;7.58;49.61
5905;BME280;2978;42.012;24.880;2023-03-14T06:14:04;99072.59;;;7.58;50.21
5905;BME280;2978;42.012;24.880;2023-03-14T06:16:29;99069.06;;;7.58;51.02
5905;BME280;2978;42.012;24.880;2023-03-14T06:18:55;99075.75;;;7.50;50.39
5905;BME280;2978;42.012;24.880;2023-03-14T06:21:20;99070.19;;;7.45;50.26
5905;BME280;2978;42.012;24.880;2023-03-14T06:23:46;99078.66;;;7.44;50.81
5905;BME280;2978;42.012;24.880;2023-03-14T06:26:11;99076.56;;;7.34;51.17
5905;BME280;2978;42.012;24.880;2023-03-14T06:28:49;99071.28;;;7.44;51.62
5905;BME280;2978;42.012;24.880;2023-03-14T06:31:16;99078.00;;;7.53;50.77
5905;BME280;2978;42.012;24.880;2023-03-14T06:33:42;99067.88;;;7.54;50.67
5905;BME280;2978;42.012;24.880;2023-03-14T06:36:07;99066.41;;;7.63;50.87
5905;BME280;2978;42.012;24.880;2023-03-14T06:38:33;99073.03;;;7.67;50.17
5905;BME280;2978;42.012;24.880;2023-03-14T06:41:05;99075.03;;;7.71;50.55
5905;BME280;2978;42.012;24.880;2023-03-14T06:43:31;99070.47;;;7.77;50.77
5905;BME280;2978;42.012;24.880;2023-03-14T06:45:56;99062.19;;;7.72;50.02
5905;BME280;2978;42.012;24.880;2023-03-14T06:48:22;99070.22;;;7.78;50.60
5905;BME280;2978;42.012;24.880;2023-03-14T06:50:48;99073.19;;;7.77;50.82
5905;BME280;2978;42.012;24.880;2023-03-14T06:53:13;99068.97;;;7.69;50.31
5905;BME280;2978;42.012;24.880;2023-03-14T06:55:39;99068.06;;;7.80;50.23
5905;BME280;2978;42.012;24.880;2023-03-14T06:58:04;99066.16;;;7.81;50.66
5905;BME280;2978;42.012;24.880;2023-03-14T07:00:33;99060.91;;;7.79;51.23
5905;BME280;2978;42.012;24.880;2023-03-14T07:03:27;99060.03;;;7.74;50.85
5905;BME280;2978;42.012;24.880;2023-03-14T07:38:53;99022.78;;;8.28;49.11
5905;BME280;2978;42.012;24.880;2023-03-14T07:41:18;99015.13;;;8.51;48.99
5905;BME280;2978;42.012;24.880;2023-03-14T07:43:46;99016.41;;;8.65;48.40
5905;BME280;2978;42.012;24.880;2023-03-14T07:46:11;99019.31;;;8.80;48.45
5905;BME280;2978;42.012;24.880;2023-03-14T07:52:01;99005.16;;;8.88;47.92
5905;BME280;2978;42.012;24.880;2023-03-14T08:03:58;98988.34;;;9.06;48.26
5905;BME280;2978;42.012;24.880;2023-03-14T08:06:24;98981.72;;;9.02;48.64
5905;BME280;2978;42.012;24.880;2023-03-14T08:08:58;98989.50;;;9.16;47.19
5905;BME280;2978;42.012;24.880;2023-03-14T08:14:36;98990.97;;;9.23;47.00
5905;BME280;2978;42.012;24.880;2023-03-14T08:17:01;98984.53;;;9.39;45.88
5905;BME280;2978;42.012;24.880;2023-03-14T08:19:27;98999.19;;;9.55;45.62
5905;BME280;2978;42.012;24.880;2023-03-14T08:21:52;98983.31;;;9.62;45.02
5905;BME280;2978;42.012;24.880;2023-03-14T08:24:18;98977.84;;;9.62;45.15
5905;BME280;2978;42.012;24.880;2023-03-14T08:26:43;98984.47;;;9.66;44.79
5905;BME280;2978;42.012;24.880;2023-03-14T08:29:08;98987.75;;;9.68;44.86
5905;BME280;2978;42.012;24.880;2023-03-14T08:31:37;98974.72;;;9.85;45.00
5905;BME280;2978;42.012;24.880;2023-03-14T08:34:02;98977.47;;;9.90;44.54
5905;BME280;2978;42.012;24.880;2023-03-14T08:36:28;98965.41;;;9.91;43.80
5905;BME280;2978;42.012;24.880;2023-03-14T08:38:53;98974.78;;;10.00;43.59
5905;BME280;2978;42.012;24.880;2023-03-14T08:41:19;98967.38;;;9.95;44.36
5905;BME280;2978;42.012;24.880;2023-03-14T08:43:45;98956.22;;;10.12;43.45
5905;BME280;2978;42.012;24.880;2023-03-14T08:46:10;98954.59;;;10.16;43.54
5905;BME280;2978;42.012;24.880;2023-03-14T08:48:36;98944.44;;;10.22;43.36
5905;BME280;2978;42.012;24.880;2023-03-14T08:51:09;98943.09;;;10.29;42.75
5905;BME280;2978;42.012;24.880;2023-03-14T08:53:36;98953.59;;;10.37;42.70
5905;BME280;2978;42.012;24.880;2023-03-14T08:56:02;98940.66;;;10.43;42.22
5905;BME280;2978;42.012;24.880;2023-03-14T08:58:28;98945.66;;;10.56;42.03
5905;BME280;2978;42.012;24.880;2023-03-14T09:00:54;98939.91;;;10.62;41.61
5905;BME280;2978;42.012;24.880;2023-03-14T09:03:20;98931.72;;;10.77;41.51
5905;BME280;2978;42.012;24.880;2023-03-14T09:05:48;98917.97;;;10.82;41.28
5905;BME280;2978;42.012;24.880;2023-03-14T09:08:14;98921.28;;;10.94;41.38
5905;BME280;2978;42.012;24.880;2023-03-14T09:10:39;98922.91;;;10.85;40.62
5905;BME280;2978;42.012;24.880;2023-03-14T09:13:05;98906.97;;;10.87;41.09
5905;BME280;2978;42.012;24.880;2023-03-14T09:15:31;98913.28;;;10.83;41.03
5905;BME280;2978;42.012;24.880;2023-03-14T09:17:57;98906.41;;;10.90;40.17
5905;BME280;2978;42.012;24.880;2023-03-14T09:20:23;98895.41;;;11.00;40.24
5905;BME280;2978;42.012;24.880;2023-03-14T09:22:48;98892.66;;;11.05;40.35
5905;BME280;2978;42.012;24.880;2023-03-14T09:25:13;98888.53;;;10.98;40.57
5905;BME280;2978;42.012;24.880;2023-03-14T09:27:39;98883.31;;;11.01;40.79
5905;BME280;2978;42.012;24.880;2023-03-14T09:30:05;98878.34;;;10.73;41.13
5905;BME280;2978;42.012;24.880;2023-03-14T09:32:31;98869.53;;;10.66;41.70
5905;BME280;2978;42.012;24.880;2023-03-14T09:34:59;98869.81;;;10.70;41.50
5905;BME280;2978;42.012;24.880;2023-03-14T09:37:25;98860.75;;;10.74;41.32
5905;BME280;2978;42.012;24.880;2023-03-14T09:39:50;98862.91;;;10.52;42.30
5905;BME280;2978;42.012;24.880;2023-03-14T09:42:22;98860.72;;;10.54;42.62
5905;BME280;2978;42.012;24.880;2023-03-14T09:44:57;98860.19;;;10.67;42.25
5905;BME280;2978;42.012;24.880;2023-03-14T09:47:24;98842.03;;;10.76;42.89
5905;BME280;2978;42.012;24.880;2023-03-14T09:49:50;98843.16;;;11.00;42.30
5905;BME280;2978;42.012;24.880;2023-03-14T09:52:30;98841.78;;;11.08;41.89
5905;BME280;2978;42.012;24.880;2023-03-14T09:54:59;98841.22;;;11.06;41.36
5905;BME280;2978;42.012;24.880;2023-03-14T09:57:27;98839.31;;;11.06;41.46
5905;BME280;2978;42.012;24.880;2023-03-14T10:00:01;98832.94;;;11.31;41.04
5905;BME280;2978;42.012;24.880;2023-03-14T10:02:35;98834.28;;;11.49;40.66
5905;BME280;2978;42.012;24.880;2023-03-14T10:05:00;98829.00;;;11.62;40.83
5905;BME280;2978;42.012;24.880;2023-03-14T10:07:31;98825.44;;;11.67;40.61
5905;BME280;2978;42.012;24.880;2023-03-14T10:09:58;98817.41;;;11.75;40.78
5905;BME280;2978;42.012;24.880;2023-03-14T10:12:37;98828.69;;;11.89;40.28
5905;BME280;2978;42.012;24.880;2023-03-14T10:15:12;98808.88;;;11.82;40.28
5905;BME280;2978;42.012;24.880;2023-03-14T10:17:58;98806.13;;;11.82;40.61
5905;BME280;2978;42.012;24.880;2023-03-14T10:23:34;98792.88;;;11.84;40.38
5905;BME280;2978;42.012;24.880;2023-03-14T10:26:16;98792.09;;;11.78;41.11
5905;BME280;2978;42.012;24.880;2023-03-14T10:28:51;98784.53;;;11.99;40.91
5905;BME280;2978;42.012;24.880;2023-03-14T10:31:17;98776.34;;;11.89;40.65
5905;BME280;2978;42.012;24.880;2023-03-14T10:33:57;98772.38;;;12.05;40.63
5905;BME280;2978;42.012;24.880;2023-03-14T10:36:26;98761.66;;;11.98;40.37
5905;BME280;2978;42.012;24.880;2023-03-14T10:41:40;98745.63;;;12.10;40.07
5905;BME280;2978;42.012;24.880;2023-03-14T10:44:07;98733.19;;;12.18;39.97
5905;BME280;2978;42.012;24.880;2023-03-14T10:46:35;98735.56;;;12.29;39.95
5905;BME280;2978;42.012;24.880;2023-03-14T10:49:04;98731.38;;;12.37;39.58
5905;BME280;2978;42.012;24.880;2023-03-14T10:51:30;98726.94;;;12.41;40.06
5905;BME280;2978;42.012;24.880;2023-03-14T10:56:25;98715.53;;;12.53;39.97
5905;BME280;2978;42.012;24.880;2023-03-14T10:58:57;98707.66;;;12.70;39.26
5905;BME280;2978;42.012;24.880;2023-03-14T11:09:50;98692.69;;;12.47;39.82
5905;BME280;2978;42.012;24.880;2023-03-14T11:15:13;98678.84;;;12.52;39.95
5905;BME280;2978;42.012;24.880;2023-03-14T11:18:06;98663.34;;;12.61;40.13
5905;BME280;2978;42.012;24.880;2023-03-14T11:31:31;98624.25;;;13.06;38.76
5905;BME280;2978;42.012;24.880;2023-03-14T11:36:41;98603.53;;;13.27;38.99
5905;BME280;2978;42.012;24.880;2023-03-14T11:39:15;98588.19;;;13.21;38.87
5905;BME280;2978;42.012;24.880;2023-03-14T11:41:44;98589.28;;;13.20;39.38
5905;BME280;2978;42.012;24.880;2023-03-14T11:49:37;98571.53;;;13.64;38.73
5905;BME280;2978;42.012;24.880;2023-03-14T11:52:16;98568.34;;;13.56;38.86
5905;BME280;2978;42.012;24.880;2023-03-14T11:54:53;98554.66;;;13.65;38.97
5905;BME280;2978;42.012;24.880;2023-03-14T11:57:21;98549.97;;;13.66;38.89
5905;BME280;2978;42.012;24.880;2023-03-14T12:10:19;98515.75;;;13.62;39.49
5905;BME280;2978;42.012;24.880;2023-03-14T12:12:45;98502.13;;;13.70;39.58
5905;BME280;2978;42.012;24.880;2023-03-14T12:15:19;98489.16;;;13.84;39.70
5905;BME280;2978;42.012;24.880;2023-03-14T12:17:45;98478.72;;;13.95;39.43
5905;BME280;2978;42.012;24.880;2023-03-14T12:22:54;98473.28;;;13.90;39.33
5905;BME280;2978;42.012;24.880;2023-03-14T12:25:26;98457.97;;;13.97;39.58
5905;BME280;2978;42.012;24.880;2023-03-14T12:30:40;98449.69;;;14.24;39.05
5905;BME280;2978;42.012;24.880;2023-03-14T12:35:47;98440.22;;;14.30;38.71
5905;BME280;2978;42.012;24.880;2023-03-14T12:43:51;98420.66;;;14.40;39.62
5905;BME280;2978;42.012;24.880;2023-03-14T12:49:07;98414.19;;;14.58;39.00
5905;BME280;2978;42.012;24.880;2023-03-14T12:51:37;98413.47;;;14.53;38.92
5905;BME280;2978;42.012;24.880;2023-03-14T12:56:50;98410.09;;;14.29;39.19
5905;BME280;2978;42.012;24.880;2023-03-14T13:06:59;98393.81;;;14.41;39.33
5905;BME280;2978;42.012;24.880;2023-03-14T13:12:13;98389.91;;;14.42;39.03
5905;BME280;2978;42.012;24.880;2023-03-14T13:14:47;98384.69;;;14.40;39.06
5905;BME280;2978;42.012;24.880;2023-03-14T13:17:16;98385.00;;;14.39;38.85
5905;BME280;2978;42.012;24.880;2023-03-14T13:19:50;98387.44;;;14.40;38.84
5905;BME280;2978;42.012;24.880;2023-03-14T13:22:27;98386.03;;;14.43;38.68
5905;BME280;2978;42.012;24.880;2023-03-14T13:25:06;98382.75;;;14.41;37.96
5905;BME280;2978;42.012;24.880;2023-03-14T13:27:34;98376.06;;;14.42;38.12
5905;BME280;2978;42.012;24.880;2023-03-14T13:30:11;98374.75;;;14.39;37.76
5905;BME280;2978;42.012;24.880;2023-03-14T13:32:42;98376.06;;;14.42;37.92
5905;BME280;2978;42.012;24.880;2023-03-14T13:35:24;98376.06;;;14.42;38.02
5905;BME280;2978;42.012;24.880;2023-03-14T13:37:58;98368.28;;;14.44;38.00
5905;BME280;2978;42.012;24.880;2023-03-14T13:40:29;98363.19;;;14.37;37.50
5905;BME280;2978;42.012;24.880;2023-03-14T13:43:14;98361.34;;;14.46;37.55
5905;BME280;2978;42.012;24.880;2023-03-14T13:46:01;98343.91;;;14.46;37.41
5905;BME280;2978;42.012;24.880;2023-03-14T13:48:29;98341.66;;;14.48;37.07
5905;BME280;2978;42.012;24.880;2023-03-14T13:53:26;98346.31;;;14.61;36.93
5905;BME280;2978;42.012;24.880;2023-03-14T13:55:52;98325.34;;;14.60;37.10
5905;BME280;2978;42.012;24.880;2023-03-14T13:58:29;98322.25;;;14.61;36.50
5905;BME280;2978;42.012;24.880;2023-03-14T14:01:04;98318.44;;;14.71;36.73
5905;BME280;2978;42.012;24.880;2023-03-14T14:03:33;98317.22;;;14.63;36.66
5905;BME280;2978;42.012;24.880;2023-03-14T14:05:59;98293.97;;;14.64;36.46
5905;BME280;2978;42.012;24.880;2023-03-14T14:08:25;98308.56;;;14.79;36.44
5905;BME280;2978;42.012;24.880;2023-03-14T14:10:54;98297.50;;;14.79;36.30
5905;BME280;2978;42.012;24.880;2023-03-14T14:13:23;98291.72;;;14.89;36.06
5905;BME280;2978;42.012;24.880;2023-03-14T14:15:51;98290.66;;;14.98;35.60
5905;BME280;2978;42.012;24.880;2023-03-14T14:18:21;98284.47;;;15.01;35.18
5905;BME280;2978;42.012;24.880;2023-03-14T14:20:49;98271.03;;;14.86;35.07
5905;BME280;2978;42.012;24.880;2023-03-14T14:23:25;98271.41;;;14.93;34.88
5905;BME280;2978;42.012;24.880;2023-03-14T14:25:52;98269.88;;;14.87;34.58
5905;BME280;2978;42.012;24.880;2023-03-14T14:28:38;98255.44;;;14.90;34.56
5905;BME280;2978;42.012;24.880;2023-03-14T14:33:29;98248.66;;;15.05;34.31
5905;BME280;2978;42.012;24.880;2023-03-14T14:35:59;98238.94;;;15.07;33.68
5905;BME280;2978;42.012;24.880;2023-03-14T14:38:26;98245.16;;;15.13;33.15
5905;BME280;2978;42.012;24.880;2023-03-14T14:40:55;98242.06;;;15.14;33.18
5905;BME280;2978;42.012;24.880;2023-03-14T14:43:26;98232.09;;;15.13;33.09
5905;BME280;2978;42.012;24.880;2023-03-14T14:45:54;98231.81;;;15.15;32.10
5905;BME280;2978;42.012;24.880;2023-03-14T14:48:24;98220.56;;;15.11;31.82
5905;BME280;2978;42.012;24.880;2023-03-14T14:51:04;98218.75;;;15.15;31.75
5905;BME280;2978;42.012;24.880;2023-03-14T14:53:38;98218.75;;;15.15;31.60
5905;BME280;2978;42.012;24.880;2023-03-14T14:56:17;98213.53;;;15.14;31.43
5905;BME280;2978;42.012;24.880;2023-03-14T14:58:46;98210.13;;;15.17;31.51
5905;BME280;2978;42.012;24.880;2023-03-14T15:01:21;98212.44;;;15.15;31.42
5905;BME280;2978;42.012;24.880;2023-03-14T15:03:50;98206.06;;;15.14;31.30
5905;BME280;2978;42.012;24.880;2023-03-14T15:06:16;98198.28;;;15.25;30.97
5905;BME280;2978;42.012;24.880;2023-03-14T15:08:44;98197.31;;;15.29;31.20
5905;BME280;2978;42.012;24.880;2023-03-14T15:11:18;98199.94;;;15.34;30.99
5905;BME280;2978;42.012;24.880;2023-03-14T15:13:44;98190.03;;;15.33;30.92
5905;BME280;2978;42.012;24.880;2023-03-14T15:16:11;98181.84;;;15.28;30.89
5905;BME280;2978;42.012;24.880;2023-03-14T15:18:37;98173.00;;;15.18;31.06
5905;BME280;2978;42.012;24.880;2023-03-14T15:21:02;98181.50;;;15.21;30.73
5905;BME280;2978;42.012;24.880;2023-03-14T15:23:28;98186.00;;;15.09;31.15
5905;BME280;2978;42.012;24.880;2023-03-14T15:25:53;98172.47;;;15.07;31.49
5905;BME280;2978;42.012;24.880;2023-03-14T15:28:21;98183.91;;;15.14;31.56
5905;BME280;2978;42.012;24.880;2023-03-14T15:30:52;98181.94;;;15.06;31.34
5905;BME280;2978;42.012;24.880;2023-03-14T15:33:18;98172.72;;;14.89;31.78
5905;BME280;2978;42.012;24.880;2023-03-14T15:35:44;98172.22;;;14.87;31.46
5905;BME280;2978;42.012;24.880;2023-03-14T15:38:11;98179.19;;;14.84;31.28
5905;BME280;2978;42.012;24.880;2023-03-14T15:40:38;98178.03;;;14.77;31.27
5905;BME280;2978;42.012;24.880;2023-03-14T15:43:04;98178.81;;;14.77;31.08